sensor_id;sensor_type;location;lat;lon;timestamp;temperature;humidity
68511;SHT31;55512;50.102;19.958;2023-04-03T00:01:00;3.73;76.06
68511;SHT31;55512;50.102;19.958;2023-04-03T00:03:27;3.71;76.06
68511;SHT31;55512;50.102;19.958;2023-04-03T00:05:53;3.73;75.95
68511;SHT31;55512;50.102;19.958;2023-04-03T00:08:19;3.73;75.95
68511;SHT31;55512;50.102;19.958;2023-04-03T00:10:45;3.69;76.04
68511;SHT31;55512;50.102;19.958;2023-04-03T00:13:11;3.65;76.18
68511;SHT31;55512;50.102;19.958;2023-04-03T00:15:37;3.64;76.23
68511;SHT31;55512;50.102;19.958;2023-04-03T00:18:04;3.61;76.27
68511;SHT31;55512;50.102;19.958;2023-04-03T00:20:30;3.60;76.27
68511;SHT31;55512;50.102;19.958;2023-04-03T00:22:56;3.59;76.34
68511;SHT31;55512;50.102;19.958;2023-04-03T00:25:22;3.56;76.46
68511;SHT31;55512;50.102;19.958;2023-04-03T00:27:48;3.58;76.36
68511;SHT31;55512;50.102;19.958;2023-04-03T00:30:16;3.55;76.49
68511;SHT31;55512;50.102;19.958;2023-04-03T00:32:45;3.54;76.58
68511;SHT31;55512;50.102;19.958;2023-04-03T00:35:12;3.54;76.62
68511;SHT31;55512;50.102;19.958;2023-04-03T00:37:40;3.53;76.62
68511;SHT31;55512;50.102;19.958;2023-04-03T00:40:08;3.51;76.68
68511;SHT31;55512;50.102;19.958;2023-04-03T00:42:35;3.45;76.86
68511;SHT31;55512;50.102;19.958;2023-04-03T00:47:27;3.37;77.06
68511;SHT31;55512;50.102;19.958;2023-04-03T00:49:56;3.34;77.05
68511;SHT31;55512;50.102;19.958;2023-04-03T00:52:25;3.30;77.19
68511;SHT31;55512;50.102;19.958;2023-04-03T00:54:56;3.27;77.21
68511;SHT31;55512;50.102;19.958;2023-04-03T00:57:27;3.23;77.37
68511;SHT31;55512;50.102;19.958;2023-04-03T00:59:56;3.23;77.30
68511;SHT31;55512;50.102;19.958;2023-04-03T01:02:34;3.22;77.33
68511;SHT31;55512;50.102;19.958;2023-04-03T01:04:59;3.24;77.28
68511;SHT31;55512;50.102;19.958;2023-04-03T01:07:29;3.21;77.34
68511;SHT31;55512;50.102;19.958;2023-04-03T01:09:57;3.18;77.49
68511;SHT31;55512;50.102;19.958;2023-04-03T01:12:27;3.15;77.54
68511;SHT31;55512;50.102;19.958;2023-04-03T01:15:00;3.10;77.78
68511;SHT31;55512;50.102;19.958;2023-04-03T01:17:34;3.07;77.92
68511;SHT31;55512;50.102;19.958;2023-04-03T01:25:33;3.04;77.96
68511;SHT31;55512;50.102;19.958;2023-04-03T01:28:02;3.03;78.00
68511;SHT31;55512;50.102;19.958;2023-04-03T01:30:45;3.03;78.04
68511;SHT31;55512;50.102;19.958;2023-04-03T01:33:25;3.04;78.03
68511;SHT31;55512;50.102;19.958;2023-04-03T01:35:51;3.03;78.09
68511;SHT31;55512;50.102;19.958;2023-04-03T01:38:17;3.04;77.96
68511;SHT31;55512;50.102;19.958;2023-04-03T01:40:42;3.05;77.93
68511;SHT31;55512;50.102;19.958;2023-04-03T01:43:08;3.04;77.89
68511;SHT31;55512;50.102;19.958;2023-04-03T01:45:33;3.06;77.88
68511;SHT31;55512;50.102;19.958;2023-04-03T01:47:59;3.07;77.91
68511;SHT31;55512;50.102;19.958;2023-04-03T01:50:25;3.09;77.87
68511;SHT31;55512;50.102;19.958;2023-04-03T01:52:50;3.08;77.80
68511;SHT31;55512;50.102;19.958;2023-04-03T01:55:16;3.07;77.79
68511;SHT31;55512;50.102;19.958;2023-04-03T01:57:41;3.07;77.81
68511;SHT31;55512;50.102;19.958;2023-04-03T02:00:07;3.06;77.85
68511;SHT31;55512;50.102;19.958;2023-04-03T02:02:34;3.05;77.74
68511;SHT31;55512;50.102;19.958;2023-04-03T02:04:59;3.05;77.73
68511;SHT31;55512;50.102;19.958;2023-04-03T02:07:25;3.07;77.71
68511;SHT31;55512;50.102;19.958;2023-04-03T02:09:50;3.08;77.66
68511;SHT31;55512;50.102;19.958;2023-04-03T02:12:16;3.08;77.64
68511;SHT31;55512;50.102;19.958;2023-04-03T02:14:42;3.07;77.67
68511;SHT31;55512;50.102;19.958;2023-04-03T02:17:07;3.04;77.77
68511;SHT31;55512;50.102;19.958;2023-04-03T02:19:34;3.04;77.75
68511;SHT31;55512;50.102;19.958;2023-04-03T02:22:01;3.04;77.79
68511;SHT31;55512;50.102;19.958;2023-04-03T02:24:28;3.03;77.75
68511;SHT31;55512;50.102;19.958;2023-04-03T02:26:54;3.01;77.81
68511;SHT31;55512;50.102;19.958;2023-04-03T02:29:20;3.01;77.73
68511;SHT31;55512;50.102;19.958;2023-04-03T02:31:45;3.02;77.72
68511;SHT31;55512;50.102;19.958;2023-04-03T02:34:11;3.01;77.79
68511;SHT31;55512;50.102;19.958;2023-04-03T02:36:36;2.97;77.93
68511;SHT31;55512;50.102;19.958;2023-04-03T02:39:02;2.94;78.12
68511;SHT31;55512;50.102;19.958;2023-04-03T02:41:28;2.90;78.28
68511;SHT31;55512;50.102;19.958;2023-04-03T02:43:59;2.86;78.39
68511;SHT31;55512;50.102;19.958;2023-04-03T02:46:30;2.83;78.37
68511;SHT31;55512;50.102;19.958;2023-04-03T02:48:56;2.82;78.40
68511;SHT31;55512;50.102;19.958;2023-04-03T02:51:22;2.81;78.35
68511;SHT31;55512;50.102;19.958;2023-04-03T02:53:50;2.76;78.41
68511;SHT31;55512;50.102;19.958;2023-04-03T02:56:16;2.77;78.32
68511;SHT31;55512;50.102;19.958;2023-04-03T02:58:44;2.76;78.38
68511;SHT31;55512;50.102;19.958;2023-04-03T03:01:09;2.76;78.37
68511;SHT31;55512;50.102;19.958;2023-04-03T03:03:36;2.75;78.39
68511;SHT31;55512;50.102;19.958;2023-04-03T03:06:05;2.74;78.42
68511;SHT31;55512;50.102;19.958;2023-04-03T03:08:34;2.74;78.45
68511;SHT31;55512;50.102;19.958;2023-04-03T03:11:01;2.74;78.44
68511;SHT31;55512;50.102;19.958;2023-04-03T03:13:27;2.76;78.40
68511;SHT31;55512;50.102;19.958;2023-04-03T03:15:53;2.76;78.38
68511;SHT31;55512;50.102;19.958;2023-04-03T03:18:19;2.77;78.34
68511;SHT31;55512;50.102;19.958;2023-04-03T03:20:45;2.75;78.37
68511;SHT31;55512;50.102;19.958;2023-04-03T03:23:10;2.71;78.43
68511;SHT31;55512;50.102;19.958;2023-04-03T03:25:39;2.72;78.37
68511;SHT31;55512;50.102;19.958;2023-04-03T03:28:05;2.74;78.32
68511;SHT31;55512;50.102;19.958;2023-04-03T03:30:31;2.76;78.27
68511;SHT31;55512;50.102;19.958;2023-04-03T03:32:57;2.77;78.17
68511;SHT31;55512;50.102;19.958;2023-04-03T03:35:22;2.77;78.13
68511;SHT31;55512;50.102;19.958;2023-04-03T03:37:48;2.77;78.05
68511;SHT31;55512;50.102;19.958;2023-04-03T03:40:14;2.76;77.99
68511;SHT31;55512;50.102;19.958;2023-04-03T03:42:39;2.74;77.80
68511;SHT31;55512;50.102;19.958;2023-04-03T03:45:05;2.73;77.73
68511;SHT31;55512;50.102;19.958;2023-04-03T03:47:31;2.72;77.55
68511;SHT31;55512;50.102;19.958;2023-04-03T03:49:57;2.71;77.39
68511;SHT31;55512;50.102;19.958;2023-04-03T03:52:22;2.73;77.32
68511;SHT31;55512;50.102;19.958;2023-04-03T03:54:48;2.71;77.38
68511;SHT31;55512;50.102;19.958;2023-04-03T03:57:14;2.67;77.34
68511;SHT31;55512;50.102;19.958;2023-04-03T03:59:40;2.68;77.38
68511;SHT31;55512;50.102;19.958;2023-04-03T04:02:07;2.71;77.41
68511;SHT31;55512;50.102;19.958;2023-04-03T04:04:33;2.74;77.37
68511;SHT31;55512;50.102;19.958;2023-04-03T04:06:58;2.77;77.24
68511;SHT31;55512;50.102;19.958;2023-04-03T04:09:25;2.80;77.17
68511;SHT31;55512;50.102;19.958;2023-04-03T04:11:52;2.82;77.08
68511;SHT31;55512;50.102;19.958;2023-04-03T04:14:18;2.82;76.96
68511;SHT31;55512;50.102;19.958;2023-04-03T04:16:45;2.79;76.90
68511;SHT31;55512;50.102;19.958;2023-04-03T04:19:14;2.75;76.88
68511;SHT31;55512;50.102;19.958;2023-04-03T04:21:39;2.68;76.70
68511;SHT31;55512;50.102;19.958;2023-04-03T04:24:06;2.66;76.76
68511;SHT31;55512;50.102;19.958;2023-04-03T04:26:32;2.66;76.63
68511;SHT31;55512;50.102;19.958;2023-04-03T04:28:58;2.60;76.51
68511;SHT31;55512;50.102;19.958;2023-04-03T04:31:23;2.57;76.58
68511;SHT31;55512;50.102;19.958;2023-04-03T04:33:49;2.55;76.73
68511;SHT31;55512;50.102;19.958;2023-04-03T04:36:14;2.54;76.80
68511;SHT31;55512;50.102;19.958;2023-04-03T04:38:40;2.50;76.77
68511;SHT31;55512;50.102;19.958;2023-04-03T04:41:06;2.48;76.74
68511;SHT31;55512;50.102;19.958;2023-04-03T04:43:32;2.42;76.83
68511;SHT31;55512;50.102;19.958;2023-04-03T04:46:02;2.43;76.94
68511;SHT31;55512;50.102;19.958;2023-04-03T04:48:34;2.44;77.06
68511;SHT31;55512;50.102;19.958;2023-04-03T04:51:00;2.43;77.01
68511;SHT31;55512;50.102;19.958;2023-04-03T04:53:26;2.41;77.12
68511;SHT31;55512;50.102;19.958;2023-04-03T04:55:52;2.41;77.19
68511;SHT31;55512;50.102;19.958;2023-04-03T04:58:17;2.39;77.26
68511;SHT31;55512;50.102;19.958;2023-04-03T05:00:43;2.42;77.16
68511;SHT31;55512;50.102;19.958;2023-04-03T05:03:09;2.40;77.03
68511;SHT31;55512;50.102;19.958;2023-04-03T05:05:35;2.39;77.02
68511;SHT31;55512;50.102;19.958;2023-04-03T05:08:01;2.44;76.96
68511;SHT31;55512;50.102;19.958;2023-04-03T05:10:27;2.49;76.89
68511;SHT31;55512;50.102;19.958;2023-04-03T05:12:53;2.52;76.82
68511;SHT31;55512;50.102;19.958;2023-04-03T05:15:19;2.53;76.80
68511;SHT31;55512;50.102;19.958;2023-04-03T05:17:45;2.56;76.77
68511;SHT31;55512;50.102;19.958;2023-04-03T05:20:10;2.56;76.81
68511;SHT31;55512;50.102;19.958;2023-04-03T05:22:37;2.61;76.72
68511;SHT31;55512;50.102;19.958;2023-04-03T05:25:03;2.65;76.70
68511;SHT31;55512;50.102;19.958;2023-04-03T05:27:30;2.64;76.43
68511;SHT31;55512;50.102;19.958;2023-04-03T05:29:55;2.63;76.14
68511;SHT31;55512;50.102;19.958;2023-04-03T05:32:22;2.63;76.03
68511;SHT31;55512;50.102;19.958;2023-04-03T05:34:48;2.66;75.81
68511;SHT31;55512;50.102;19.958;2023-04-03T05:37:14;2.67;75.59
68511;SHT31;55512;50.102;19.958;2023-04-03T05:39:39;2.65;75.29
68511;SHT31;55512;50.102;19.958;2023-04-03T05:42:06;2.62;75.19
68511;SHT31;55512;50.102;19.958;2023-04-03T05:44:32;2.59;75.22
68511;SHT31;55512;50.102;19.958;2023-04-03T05:46:58;2.54;75.01
68511;SHT31;55512;50.102;19.958;2023-04-03T05:49:24;2.50;75.02
68511;SHT31;55512;50.102;19.958;2023-04-03T05:51:49;2.49;75.08
68511;SHT31;55512;50.102;19.958;2023-04-03T05:54:20;2.47;75.10
68511;SHT31;55512;50.102;19.958;2023-04-03T05:56:51;2.45;75.06
68511;SHT31;55512;50.102;19.958;2023-04-03T05:59:18;2.42;75.25
68511;SHT31;55512;50.102;19.958;2023-04-03T06:01:45;2.40;75.32
68511;SHT31;55512;50.102;19.958;2023-04-03T06:04:11;2.34;75.49
68511;SHT31;55512;50.102;19.958;2023-04-03T06:06:51;2.26;75.61
68511;SHT31;55512;50.102;19.958;2023-04-03T06:09:20;2.17;75.40
68511;SHT31;55512;50.102;19.958;2023-04-03T06:11:49;2.16;75.43
68511;SHT31;55512;50.102;19.958;2023-04-03T06:14:16;2.07;75.22
68511;SHT31;55512;50.102;19.958;2023-04-03T06:16:42;2.05;75.09
68511;SHT31;55512;50.102;19.958;2023-04-03T06:19:08;2.08;75.10
68511;SHT31;55512;50.102;19.958;2023-04-03T06:21:35;2.09;74.98
68511;SHT31;55512;50.102;19.958;2023-04-03T06:24:02;2.11;74.85
68511;SHT31;55512;50.102;19.958;2023-04-03T06:26:30;2.06;74.34
68511;SHT31;55512;50.102;19.958;2023-04-03T06:28:55;2.06;74.28
68511;SHT31;55512;50.102;19.958;2023-04-03T06:31:21;2.07;73.98
68511;SHT31;55512;50.102;19.958;2023-04-03T06:33:47;2.06;73.40
68511;SHT31;55512;50.102;19.958;2023-04-03T06:36:12;2.07;73.21
68511;SHT31;55512;50.102;19.958;2023-04-03T06:38:38;2.12;73.34
68511;SHT31;55512;50.102;19.958;2023-04-03T06:41:04;2.19;73.31
68511;SHT31;55512;50.102;19.958;2023-04-03T06:43:29;2.21;72.38
68511;SHT31;55512;50.102;19.958;2023-04-03T06:45:58;2.22;71.82
68511;SHT31;55512;50.102;19.958;2023-04-03T06:48:23;2.25;71.81
68511;SHT31;55512;50.102;19.958;2023-04-03T06:50:49;2.29;71.42
68511;SHT31;55512;50.102;19.958;2023-04-03T06:53:15;2.30;70.74
68511;SHT31;55512;50.102;19.958;2023-04-03T06:55:40;2.33;70.56
68511;SHT31;55512;50.102;19.958;2023-04-03T06:58:06;2.36;70.52
68511;SHT31;55512;50.102;19.958;2023-04-03T07:00:32;2.32;69.21
68511;SHT31;55512;50.102;19.958;2023-04-03T07:02:58;2.39;69.61
68511;SHT31;55512;50.102;19.958;2023-04-03T07:05:24;2.43;69.38
68511;SHT31;55512;50.102;19.958;2023-04-03T07:07:51;2.41;69.07
68511;SHT31;55512;50.102;19.958;2023-04-03T07:10:17;2.46;69.37
68511;SHT31;55512;50.102;19.958;2023-04-03T07:12:43;2.51;69.05
68511;SHT31;55512;50.102;19.958;2023-04-03T07:15:09;2.54;68.60
68511;SHT31;55512;50.102;19.958;2023-04-03T07:17:36;2.53;68.05
68511;SHT31;55512;50.102;19.958;2023-04-03T07:20:02;2.56;67.99
68511;SHT31;55512;50.102;19.958;2023-04-03T07:22:29;2.63;68.06
68511;SHT31;55512;50.102;19.958;2023-04-03T07:24:55;2.72;68.01
68511;SHT31;55512;50.102;19.958;2023-04-03T07:27:20;2.80;67.81
68511;SHT31;55512;50.102;19.958;2023-04-03T07:29:46;2.86;67.48
68511;SHT31;55512;50.102;19.958;2023-04-03T07:32:13;2.91;66.61
68511;SHT31;55512;50.102;19.958;2023-04-03T07:34:40;2.96;66.61
68511;SHT31;55512;50.102;19.958;2023-04-03T07:37:05;3.04;66.91
68511;SHT31;55512;50.102;19.958;2023-04-03T07:39:32;3.16;66.67
68511;SHT31;55512;50.102;19.958;2023-04-03T07:41:58;3.23;65.82
68511;SHT31;55512;50.102;19.958;2023-04-03T07:44:24;3.23;65.16
68511;SHT31;55512;50.102;19.958;2023-04-03T07:46:50;3.16;64.22
68511;SHT31;55512;50.102;19.958;2023-04-03T07:49:16;3.12;64.07
68511;SHT31;55512;50.102;19.958;2023-04-03T07:51:47;3.13;64.08
68511;SHT31;55512;50.102;19.958;2023-04-03T07:54:13;3.22;64.94
68511;SHT31;55512;50.102;19.958;2023-04-03T07:56:40;3.32;65.11
68511;SHT31;55512;50.102;19.958;2023-04-03T07:59:07;3.38;64.99
68511;SHT31;55512;50.102;19.958;2023-04-03T08:01:33;3.42;64.87
68511;SHT31;55512;50.102;19.958;2023-04-03T08:03:59;3.42;64.13
68511;SHT31;55512;50.102;19.958;2023-04-03T08:06:25;3.42;64.04
68511;SHT31;55512;50.102;19.958;2023-04-03T08:08:51;3.41;64.00
68511;SHT31;55512;50.102;19.958;2023-04-03T08:11:16;3.38;63.54
68511;SHT31;55512;50.102;19.958;2023-04-03T08:13:43;3.29;63.15
68511;SHT31;55512;50.102;19.958;2023-04-03T08:16:16;3.28;63.51
68511;SHT31;55512;50.102;19.958;2023-04-03T08:18:45;3.30;63.72
68511;SHT31;55512;50.102;19.958;2023-04-03T08:21:11;3.41;64.41
68511;SHT31;55512;50.102;19.958;2023-04-03T08:23:38;3.56;64.43
68511;SHT31;55512;50.102;19.958;2023-04-03T08:26:05;3.71;65.00
68511;SHT31;55512;50.102;19.958;2023-04-03T08:28:33;3.74;63.49
68511;SHT31;55512;50.102;19.958;2023-04-03T08:31:02;3.82;64.11
68511;SHT31;55512;50.102;19.958;2023-04-03T08:33:35;3.82;63.15
68511;SHT31;55512;50.102;19.958;2023-04-03T08:36:05;3.87;63.95
68511;SHT31;55512;50.102;19.958;2023-04-03T08:38:33;3.88;63.45
68511;SHT31;55512;50.102;19.958;2023-04-03T08:41:04;3.83;63.13
68511;SHT31;55512;50.102;19.958;2023-04-03T08:44:07;3.89;63.76
68511;SHT31;55512;50.102;19.958;2023-04-03T08:46:56;3.85;62.48
68511;SHT31;55512;50.102;19.958;2023-04-03T08:52:19;3.55;61.52
68511;SHT31;55512;50.102;19.958;2023-04-03T08:55:06;3.47;61.39
68511;SHT31;55512;50.102;19.958;2023-04-03T08:57:50;3.46;61.98
68511;SHT31;55512;50.102;19.958;2023-04-03T09:00:28;3.49;62.11
68511;SHT31;55512;50.102;19.958;2023-04-03T09:03:10;3.55;62.84
68511;SHT31;55512;50.102;19.958;2023-04-03T09:05:51;3.65;63.64
68511;SHT31;55512;50.102;19.958;2023-04-03T09:08:32;3.56;60.98
68511;SHT31;55512;50.102;19.958;2023-04-03T09:11:06;3.50;61.20
68511;SHT31;55512;50.102;19.958;2023-04-03T09:19:13;3.16;61.03
68511;SHT31;55512;50.102;19.958;2023-04-03T09:21:45;3.04;61.75
68511;SHT31;55512;50.102;19.958;2023-04-03T09:24:12;3.03;62.44
68511;SHT31;55512;50.102;19.958;2023-04-03T09:27:01;3.02;63.01
68511;SHT31;55512;50.102;19.958;2023-04-03T09:29:31;2.99;63.70
68511;SHT31;55512;50.102;19.958;2023-04-03T09:32:09;3.06;64.30
68511;SHT31;55512;50.102;19.958;2023-04-03T09:35:16;3.11;64.06
68511;SHT31;55512;50.102;19.958;2023-04-03T09:38:37;3.13;64.03
68511;SHT31;55512;50.102;19.958;2023-04-03T09:40:39;3.22;64.39
68511;SHT31;55512;50.102;19.958;2023-04-03T09:45:42;3.20;62.64
68511;SHT31;55512;50.102;19.958;2023-04-03T09:58:42;3.19;63.31
68511;SHT31;55512;50.102;19.958;2023-04-03T10:01:28;3.23;63.21
68511;SHT31;55512;50.102;19.958;2023-04-03T10:09:31;3.37;62.32
68511;SHT31;55512;50.102;19.958;2023-04-03T10:12:01;3.40;62.38
68511;SHT31;55512;50.102;19.958;2023-04-03T10:14:40;3.40;61.83
68511;SHT31;55512;50.102;19.958;2023-04-03T10:17:18;3.34;61.27
68511;SHT31;55512;50.102;19.958;2023-04-03T10:23:38;3.29;61.98
68511;SHT31;55512;50.102;19.958;2023-04-03T10:25:55;3.36;61.86
68511;SHT31;55512;50.102;19.958;2023-04-03T10:34:28;3.72;62.16
68511;SHT31;55512;50.102;19.958;2023-04-03T10:39:59;3.69;61.09
68511;SHT31;55512;50.102;19.958;2023-04-03T10:45:24;3.55;61.43
68511;SHT31;55512;50.102;19.958;2023-04-03T10:58:42;3.43;61.09
68511;SHT31;55512;50.102;19.958;2023-04-03T11:01:17;3.47;61.26
68511;SHT31;55512;50.102;19.958;2023-04-03T11:03:49;3.50;60.79
68511;SHT31;55512;50.102;19.958;2023-04-03T11:06:19;3.56;61.08
68511;SHT31;55512;50.102;19.958;2023-04-03T11:08:51;3.60;61.35
68511;SHT31;55512;50.102;19.958;2023-04-03T11:11:25;3.66;61.55
68511;SHT31;55512;50.102;19.958;2023-04-03T11:16:42;3.65;60.83
68511;SHT31;55512;50.102;19.958;2023-04-03T11:22:01;3.75;61.30
68511;SHT31;55512;50.102;19.958;2023-04-03T11:24:36;3.85;61.49
68511;SHT31;55512;50.102;19.958;2023-04-03T11:27:16;3.90;61.24
68511;SHT31;55512;50.102;19.958;2023-04-03T11:29:47;3.92;60.65
68511;SHT31;55512;50.102;19.958;2023-04-03T11:35:37;4.12;60.57
68511;SHT31;55512;50.102;19.958;2023-04-03T11:38:13;4.26;59.96
68511;SHT31;55512;50.102;19.958;2023-04-03T11:40:48;4.30;59.21
68511;SHT31;55512;50.102;19.958;2023-04-03T11:43:23;4.21;57.86
68511;SHT31;55512;50.102;19.958;2023-04-03T11:46:01;4.29;58.78
68511;SHT31;55512;50.102;19.958;2023-04-03T11:50:58;4.32;57.35
68511;SHT31;55512;50.102;19.958;2023-04-03T11:55:53;4.64;58.30
68511;SHT31;55512;50.102;19.958;2023-04-03T11:58:27;4.78;57.33
68511;SHT31;55512;50.102;19.958;2023-04-03T12:00:57;4.99;57.90
68511;SHT31;55512;50.102;19.958;2023-04-03T12:08:43;5.19;55.28
68511;SHT31;55512;50.102;19.958;2023-04-03T12:13:38;5.34;54.05
68511;SHT31;55512;50.102;19.958;2023-04-03T12:16:07;5.46;52.19
68511;SHT31;55512;50.102;19.958;2023-04-03T12:27:21;5.70;51.48
68511;SHT31;55512;50.102;19.958;2023-04-03T12:35:18;5.70;50.43
68511;SHT31;55512;50.102;19.958;2023-04-03T12:39:06;5.74;51.79
68511;SHT31;55512;50.102;19.958;2023-04-03T12:43:42;6.14;50.86
68511;SHT31;55512;50.102;19.958;2023-04-03T12:46:38;6.24;50.20
68511;SHT31;55512;50.102;19.958;2023-04-03T12:52:16;5.89;46.57
68511;SHT31;55512;50.102;19.958;2023-04-03T12:54:55;5.73;47.46
68511;SHT31;55512;50.102;19.958;2023-04-03T12:57:25;5.72;48.56
68511;SHT31;55512;50.102;19.958;2023-04-03T12:59:52;5.68;46.84
68511;SHT31;55512;50.102;19.958;2023-04-03T13:02:27;5.68;46.86
68511;SHT31;55512;50.102;19.958;2023-04-03T13:04:59;5.74;47.79
68511;SHT31;55512;50.102;19.958;2023-04-03T13:07:33;5.82;47.18
68511;SHT31;55512;50.102;19.958;2023-04-03T13:12:32;5.73;47.62
68511;SHT31;55512;50.102;19.958;2023-04-03T13:15:00;5.75;48.25
68511;SHT31;55512;50.102;19.958;2023-04-03T13:17:39;5.80;48.78
68511;SHT31;55512;50.102;19.958;2023-04-03T13:20:12;5.78;48.34
68511;SHT31;55512;50.102;19.958;2023-04-03T13:22:48;5.72;48.63
68511;SHT31;55512;50.102;19.958;2023-04-03T13:25:15;5.75;49.00
68511;SHT31;55512;50.102;19.958;2023-04-03T13:27:43;5.80;49.60
68511;SHT31;55512;50.102;19.958;2023-04-03T13:30:27;5.91;49.02
68511;SHT31;55512;50.102;19.958;2023-04-03T13:32:56;6.07;48.64
68511;SHT31;55512;50.102;19.958;2023-04-03T13:35:32;6.36;49.33
68511;SHT31;55512;50.102;19.958;2023-04-03T13:38:06;6.62;48.41
68511;SHT31;55512;50.102;19.958;2023-04-03T13:40:53;6.66;46.92
68511;SHT31;55512;50.102;19.958;2023-04-03T13:43:26;6.74;48.19
68511;SHT31;55512;50.102;19.958;2023-04-03T13:48:48;7.09;47.76
68511;SHT31;55512;50.102;19.958;2023-04-03T13:51:19;7.27;47.62
68511;SHT31;55512;50.102;19.958;2023-04-03T13:56:33;7.42;47.05
68511;SHT31;55512;50.102;19.958;2023-04-03T14:01:47;7.39;46.39
68511;SHT31;55512;50.102;19.958;2023-04-03T14:04:22;7.40;46.46
68511;SHT31;55512;50.102;19.958;2023-04-03T14:06:52;7.38;45.82
68511;SHT31;55512;50.102;19.958;2023-04-03T14:09:19;7.33;46.09
68511;SHT31;55512;50.102;19.958;2023-04-03T14:11:48;7.45;46.03
68511;SHT31;55512;50.102;19.958;2023-04-03T14:14:21;7.63;46.35
68511;SHT31;55512;50.102;19.958;2023-04-03T14:16:54;7.98;46.55
68511;SHT31;55512;50.102;19.958;2023-04-03T14:19:34;8.49;46.48
68511;SHT31;55512;50.102;19.958;2023-04-03T14:22:03;9.01;45.25
68511;SHT31;55512;50.102;19.958;2023-04-03T14:24:50;9.08;44.91
68511;SHT31;55512;50.102;19.958;2023-04-03T14:29:48;8.97;42.37
68511;SHT31;55512;50.102;19.958;2023-04-03T14:32:17;8.73;42.65
68511;SHT31;55512;50.102;19.958;2023-04-03T14:34:45;8.46;43.76
68511;SHT31;55512;50.102;19.958;2023-04-03T14:37:15;8.49;44.05
68511;SHT31;55512;50.102;19.958;2023-04-03T14:39:44;9.25;42.88
68511;SHT31;55512;50.102;19.958;2023-04-03T14:42:12;9.93;41.27
68511;SHT31;55512;50.102;19.958;2023-04-03T14:44:41;10.35;39.86
68511;SHT31;55512;50.102;19.958;2023-04-03T14:47:11;10.42;37.16
68511;SHT31;55512;50.102;19.958;2023-04-03T14:49:45;10.60;37.31
68511;SHT31;55512;50.102;19.958;2023-04-03T14:52:21;11.28;36.85
68511;SHT31;55512;50.102;19.958;2023-04-03T14:54:52;11.95;34.99
68511;SHT31;55512;50.102;19.958;2023-04-03T14:57:19;12.67;32.63
68511;SHT31;55512;50.102;19.958;2023-04-03T14:59:49;13.64;32.10
68511;SHT31;55512;50.102;19.958;2023-04-03T15:02:28;14.33;31.43
68511;SHT31;55512;50.102;19.958;2023-04-03T15:05:00;14.44;31.42
68511;SHT31;55512;50.102;19.958;2023-04-03T15:07:29;14.94;30.09
68511;SHT31;55512;50.102;19.958;2023-04-03T15:10:01;14.89;28.72
68511;SHT31;55512;50.102;19.958;2023-04-03T15:12:44;14.90;30.21
68511;SHT31;55512;50.102;19.958;2023-04-03T15:15:12;15.74;29.83
68511;SHT31;55512;50.102;19.958;2023-04-03T15:17:39;16.41;29.35
68511;SHT31;55512;50.102;19.958;2023-04-03T15:20:13;16.96;28.89
68511;SHT31;55512;50.102;19.958;2023-04-03T15:22:49;17.76;28.09
68511;SHT31;55512;50.102;19.958;2023-04-03T15:25:15;18.68;26.08
68511;SHT31;55512;50.102;19.958;2023-04-03T15:27:41;20.04;25.94
68511;SHT31;55512;50.102;19.958;2023-04-03T15:30:08;20.97;26.32
68511;SHT31;55512;50.102;19.958;2023-04-03T15:32:39;20.80;23.06
68511;SHT31;55512;50.102;19.958;2023-04-03T15:35:05;18.72;24.57
68511;SHT31;55512;50.102;19.958;2023-04-03T15:37:31;19.25;25.40
68511;SHT31;55512;50.102;19.958;2023-04-03T15:39:57;18.85;24.89
68511;SHT31;55512;50.102;19.958;2023-04-03T15:42:22;17.90;24.40
68511;SHT31;55512;50.102;19.958;2023-04-03T15:44:48;18.87;24.48
68511;SHT31;55512;50.102;19.958;2023-04-03T15:47:13;20.34;24.02
68511;SHT31;55512;50.102;19.958;2023-04-03T15:49:39;20.76;22.55
68511;SHT31;55512;50.102;19.958;2023-04-03T15:52:05;21.10;22.09
68511;SHT31;55512;50.102;19.958;2023-04-03T15:54:31;21.10;22.54
68511;SHT31;55512;50.102;19.958;2023-04-03T15:56:56;21.12;21.37
68511;SHT31;55512;50.102;19.958;2023-04-03T15:59:22;20.41;21.70
68511;SHT31;55512;50.102;19.958;2023-04-03T16:01:48;19.94;21.25
68511;SHT31;55512;50.102;19.958;2023-04-03T16:04:15;17.81;21.83
68511;SHT31;55512;50.102;19.958;2023-04-03T16:06:42;17.06;22.46
68511;SHT31;55512;50.102;19.958;2023-04-03T16:09:08;16.76;23.36
68511;SHT31;55512;50.102;19.958;2023-04-03T16:11:34;16.89;23.47
68511;SHT31;55512;50.102;19.958;2023-04-03T16:14:04;16.53;22.91
68511;SHT31;55512;50.102;19.958;2023-04-03T16:16:30;14.88;24.05
68511;SHT31;55512;50.102;19.958;2023-04-03T16:18:56;13.30;25.34
68511;SHT31;55512;50.102;19.958;2023-04-03T16:21:22;12.45;27.32
68511;SHT31;55512;50.102;19.958;2023-04-03T16:23:48;11.82;28.20
68511;SHT31;55512;50.102;19.958;2023-04-03T16:26:14;10.99;29.31
68511;SHT31;55512;50.102;19.958;2023-04-03T16:28:42;10.30;30.44
68511;SHT31;55512;50.102;19.958;2023-04-03T16:31:07;9.96;31.02
68511;SHT31;55512;50.102;19.958;2023-04-03T16:33:34;9.65;31.59
68511;SHT31;55512;50.102;19.958;2023-04-03T16:36:00;9.25;32.44
68511;SHT31;55512;50.102;19.958;2023-04-03T16:38:26;8.96;33.09
68511;SHT31;55512;50.102;19.958;2023-04-03T16:40:52;8.78;33.93
68511;SHT31;55512;50.102;19.958;2023-04-03T16:43:21;8.65;34.17
68511;SHT31;55512;50.102;19.958;2023-04-03T16:45:47;8.35;34.81
68511;SHT31;55512;50.102;19.958;2023-04-03T16:48:13;8.01;35.01
68511;SHT31;55512;50.102;19.958;2023-04-03T16:50:39;7.69;35.96
68511;SHT31;55512;50.102;19.958;2023-04-03T16:53:07;7.26;36.64
68511;SHT31;55512;50.102;19.958;2023-04-03T16:55:39;6.93;37.17
68511;SHT31;55512;50.102;19.958;2023-04-03T16:58:05;6.81;37.50
68511;SHT31;55512;50.102;19.958;2023-04-03T17:00:31;6.74;37.68
68511;SHT31;55512;50.102;19.958;2023-04-03T17:02:58;6.68;38.05
68511;SHT31;55512;50.102;19.958;2023-04-03T17:05:24;6.58;38.38
68511;SHT31;55512;50.102;19.958;2023-04-03T17:07:50;6.52;38.66
68511;SHT31;55512;50.102;19.958;2023-04-03T17:10:16;6.40;39.26
68511;SHT31;55512;50.102;19.958;2023-04-03T17:12:41;6.21;39.66
68511;SHT31;55512;50.102;19.958;2023-04-03T17:15:07;6.02;40.28
68511;SHT31;55512;50.102;19.958;2023-04-03T17:17:33;5.90;40.32
68511;SHT31;55512;50.102;19.958;2023-04-03T17:19:59;5.80;40.61
68511;SHT31;55512;50.102;19.958;2023-04-03T17:22:25;5.72;40.80
68511;SHT31;55512;50.102;19.958;2023-04-03T17:24:52;5.61;41.09
68511;SHT31;55512;50.102;19.958;2023-04-03T17:27:18;5.52;41.53
68511;SHT31;55512;50.102;19.958;2023-04-03T17:29:43;5.45;41.60
68511;SHT31;55512;50.102;19.958;2023-04-03T17:32:09;5.38;41.83
68511;SHT31;55512;50.102;19.958;2023-04-03T17:34:34;5.30;42.08
68511;SHT31;55512;50.102;19.958;2023-04-03T17:37:01;5.24;42.38